sensor_id;sensor_type;location;lat;lon;timestamp;temperature;humidity
11188;DHT22;5650;52.700;7.306;2023-08-12T00:00:03;21.40;99.90
11188;DHT22;5650;52.700;7.306;2023-08-12T00:02:36;21.30;99.90
11188;DHT22;5650;52.700;7.306;2023-08-12T00:05:04;21.30;99.90
11188;DHT22;5650;52.700;7.306;2023-08-12T00:07:32;21.30;99.90
11188;DHT22;5650;52.700;7.306;2023-08-12T00:09:59;21.30;99.90
11188;DHT22;5650;52.700;7.306;2023-08-12T00:12:26;21.30;99.90
11188;DHT22;5650;52.700;7.306;2023-08-12T00:14:55;21.30;99.90
11188;DHT22;5650;52.700;7.306;2023-08-12T00:17:23;21.30;99.90
11188;DHT22;5650;52.700;7.306;2023-08-12T00:19:51;21.20;99.90
11188;DHT22;5650;52.700;7.306;2023-08-12T00:22:18;21.20;99.90
11188;DHT22;5650;52.700;7.306;2023-08-12T00:24:45;21.20;99.90
11188;DHT22;5650;52.700;7.306;2023-08-12T00:27:12;21.20;99.90
11188;DHT22;5650;52.700;7.306;2023-08-12T00:29:40;21.10;99.90
11188;DHT22;5650;52.700;7.306;2023-08-12T00:32:08;21.10;99.90
11188;DHT22;5650;52.700;7.306;2023-08-12T00:34:37;21.10;99.90
11188;DHT22;5650;52.700;7.306;2023-08-12T00:37:07;21.10;99.90
11188;DHT22;5650;52.700;7.306;2023-08-12T00:39:35;21.10;99.90
11188;DHT22;5650;52.700;7.306;2023-08-12T00:42:02;21.00;99.90
11188;DHT22;5650;52.700;7.306;2023-08-12T00:44:33;21.00;99.90
11188;DHT22;5650;52.700;7.306;2023-08-12T00:47:00;21.00;99.90
11188;DHT22;5650;52.700;7.306;2023-08-12T00:49:27;21.00;99.90
11188;DHT22;5650;52.700;7.306;2023-08-12T00:51:56;21.00;99.90
11188;DHT22;5650;52.700;7.306;2023-08-12T00:54:27;20.90;99.90
11188;DHT22;5650;52.700;7.306;2023-08-12T00:56:55;20.90;99.90
11188;DHT22;5650;52.700;7.306;2023-08-12T00:59:22;20.80;99.90
11188;DHT22;5650;52.700;7.306;2023-08-12T01:01:50;20.80;99.90
11188;DHT22;5650;52.700;7.306;2023-08-12T01:04:17;20.80;99.90
11188;DHT22;5650;52.700;7.306;2023-08-12T01:06:44;20.80;99.90
11188;DHT22;5650;52.700;7.306;2023-08-12T01:09:13;20.80;99.90
11188;DHT22;5650;52.700;7.306;2023-08-12T01:11:45;20.70;99.90
11188;DHT22;5650;52.700;7.306;2023-08-12T01:14:23;20.70;99.90
11188;DHT22;5650;52.700;7.306;2023-08-12T01:16:57;20.60;99.90
11188;DHT22;5650;52.700;7.306;2023-08-12T01:19:30;20.60;99.90
11188;DHT22;5650;52.700;7.306;2023-08-12T01:22:04;20.60;99.90
11188;DHT22;5650;52.700;7.306;2023-08-12T01:24:37;20.60;99.90
11188;DHT22;5650;52.700;7.306;2023-08-12T01:27:06;20.60;99.90
11188;DHT22;5650;52.700;7.306;2023-08-12T01:29:33;20.60;99.90
11188;DHT22;5650;52.700;7.306;2023-08-12T01:32:08;20.50;99.90
11188;DHT22;5650;52.700;7.306;2023-08-12T01:34:42;20.50;99.90
11188;DHT22;5650;52.700;7.306;2023-08-12T01:37:14;20.40;99.90
11188;DHT22;5650;52.700;7.306;2023-08-12T01:39:45;20.40;99.90
11188;DHT22;5650;52.700;7.306;2023-08-12T01:42:18;20.40;99.90
11188;DHT22;5650;52.700;7.306;2023-08-12T01:44:45;20.40;99.90
11188;DHT22;5650;52.700;7.306;2023-08-12T01:47:13;20.40;99.90
11188;DHT22;5650;52.700;7.306;2023-08-12T01:49:40;20.40;99.90
11188;DHT22;5650;52.700;7.306;2023-08-12T01:52:07;20.30;99.90
11188;DHT22;5650;52.700;7.306;2023-08-12T01:54:35;20.40;99.90
11188;DHT22;5650;52.700;7.306;2023-08-12T01:57:04;20.30;99.90
11188;DHT22;5650;52.700;7.306;2023-08-12T01:59:33;20.30;99.90
11188;DHT22;5650;52.700;7.306;2023-08-12T02:02:06;20.20;99.90
11188;DHT22;5650;52.700;7.306;2023-08-12T02:04:34;20.20;99.90
11188;DHT22;5650;52.700;7.306;2023-08-12T02:07:03;20.20;99.90
11188;DHT22;5650;52.700;7.306;2023-08-12T02:09:33;20.20;99.90
11188;DHT22;5650;52.700;7.306;2023-08-12T02:12:00;20.20;99.90
11188;DHT22;5650;52.700;7.306;2023-08-12T02:14:28;20.20;99.90
11188;DHT22;5650;52.700;7.306;2023-08-12T02:16:56;20.20;99.90
11188;DHT22;5650;52.700;7.306;2023-08-12T02:19:23;20.20;99.90
11188;DHT22;5650;52.700;7.306;2023-08-12T02:21:50;20.20;99.90
11188;DHT22;5650;52.700;7.306;2023-08-12T02:24:17;20.20;99.90
11188;DHT22;5650;52.700;7.306;2023-08-12T02:26:44;20.20;99.90
11188;DHT22;5650;52.700;7.306;2023-08-12T02:29:12;20.10;99.90
11188;DHT22;5650;52.700;7.306;2023-08-12T02:31:40;20.10;99.90
11188;DHT22;5650;52.700;7.306;2023-08-12T02:34:10;20.10;99.90
11188;DHT22;5650;52.700;7.306;2023-08-12T02:36:38;20.10;99.90
11188;DHT22;5650;52.700;7.306;2023-08-12T02:39:05;20.10;99.90
11188;DHT22;5650;52.700;7.306;2023-08-12T02:41:35;20.10;99.90
11188;DHT22;5650;52.700;7.306;2023-08-12T02:44:02;20.10;99.90
11188;DHT22;5650;52.700;7.306;2023-08-12T02:46:32;20.10;99.90
11188;DHT22;5650;52.700;7.306;2023-08-12T02:49:01;20.10;99.90
11188;DHT22;5650;52.700;7.306;2023-08-12T02:51:28;20.10;99.90
11188;DHT22;5650;52.700;7.306;2023-08-12T02:53:55;20.10;99.90
11188;DHT22;5650;52.700;7.306;2023-08-12T02:56:22;20.00;99.90
11188;DHT22;5650;52.700;7.306;2023-08-12T02:58:49;20.00;99.90
11188;DHT22;5650;52.700;7.306;2023-08-12T03:01:16;20.00;99.90
11188;DHT22;5650;52.700;7.306;2023-08-12T03:03:44;20.00;99.90
11188;DHT22;5650;52.700;7.306;2023-08-12T03:06:12;20.00;99.90
11188;DHT22;5650;52.700;7.306;2023-08-12T03:08:40;20.00;99.90
11188;DHT22;5650;52.700;7.306;2023-08-12T03:11:07;20.00;99.90
11188;DHT22;5650;52.700;7.306;2023-08-12T03:13:34;20.00;99.90
11188;DHT22;5650;52.700;7.306;2023-08-12T03:16:01;20.00;99.90
11188;DHT22;5650;52.700;7.306;2023-08-12T03:18:37;20.00;99.90
11188;DHT22;5650;52.700;7.306;2023-08-12T03:21:06;20.00;99.90
11188;DHT22;5650;52.700;7.306;2023-08-12T03:23:36;20.00;99.90
11188;DHT22;5650;52.700;7.306;2023-08-12T03:26:04;20.00;99.90
11188;DHT22;5650;52.700;7.306;2023-08-12T03:28:31;20.00;99.90
11188;DHT22;5650;52.700;7.306;2023-08-12T03:30:58;20.00;99.90
11188;DHT22;5650;52.700;7.306;2023-08-12T03:33:28;20.00;99.90
11188;DHT22;5650;52.700;7.306;2023-08-12T03:35:57;20.00;99.90
11188;DHT22;5650;52.700;7.306;2023-08-12T03:38:24;20.00;99.90
11188;DHT22;5650;52.700;7.306;2023-08-12T03:40:54;19.90;99.90
11188;DHT22;5650;52.700;7.306;2023-08-12T03:43:21;19.90;99.90
11188;DHT22;5650;52.700;7.306;2023-08-12T03:45:51;19.90;99.90
11188;DHT22;5650;52.700;7.306;2023-08-12T03:48:18;19.90;99.90
11188;DHT22;5650;52.700;7.306;2023-08-12T03:50:51;19.90;99.90
11188;DHT22;5650;52.700;7.306;2023-08-12T03:53:25;19.90;99.90
11188;DHT22;5650;52.700;7.306;2023-08-12T03:55:53;19.90;99.90
11188;DHT22;5650;52.700;7.306;2023-08-12T03:58:23;19.90;99.90
11188;DHT22;5650;52.700;7.306;2023-08-12T04:00:50;19.90;99.90
11188;DHT22;5650;52.700;7.306;2023-08-12T04:03:17;19.90;99.90
11188;DHT22;5650;52.700;7.306;2023-08-12T04:05:51;19.90;99.90
11188;DHT22;5650;52.700;7.306;2023-08-12T04:08:19;19.90;99.90
11188;DHT22;5650;52.700;7.306;2023-08-12T04:10:57;19.80;99.90
11188;DHT22;5650;52.700;7.306;2023-08-12T04:13:24;19.80;99.90
11188;DHT22;5650;52.700;7.306;2023-08-12T04:15:51;19.80;99.90
11188;DHT22;5650;52.700;7.306;2023-08-12T04:18:22;19.80;99.90
11188;DHT22;5650;52.700;7.306;2023-08-12T04:20:50;19.80;99.90
11188;DHT22;5650;52.700;7.306;2023-08-12T04:23:18;19.80;99.90
11188;DHT22;5650;52.700;7.306;2023-08-12T04:25:46;19.80;99.90
11188;DHT22;5650;52.700;7.306;2023-08-12T04:28:15;19.80;99.90
11188;DHT22;5650;52.700;7.306;2023-08-12T04:30:43;19.80;99.90
11188;DHT22;5650;52.700;7.306;2023-08-12T04:33:11;19.90;99.90
11188;DHT22;5650;52.700;7.306;2023-08-12T04:35:39;19.90;99.90
11188;DHT22;5650;52.700;7.306;2023-08-12T04:38:07;19.90;99.90
11188;DHT22;5650;52.700;7.306;2023-08-12T04:40:37;19.90;99.90
11188;DHT22;5650;52.700;7.306;2023-08-12T04:43:04;19.90;99.90
11188;DHT22;5650;52.700;7.306;2023-08-12T04:45:33;20.00;99.90
11188;DHT22;5650;52.700;7.306;2023-08-12T04:48:02;20.00;99.90
11188;DHT22;5650;52.700;7.306;2023-08-12T04:50:32;20.00;99.90
11188;DHT22;5650;52.700;7.306;2023-08-12T04:53:02;20.00;99.90
11188;DHT22;5650;52.700;7.306;2023-08-12T04:55:30;20.00;99.90
11188;DHT22;5650;52.700;7.306;2023-08-12T04:58:01;20.00;99.90
11188;DHT22;5650;52.700;7.306;2023-08-12T05:00:28;20.00;99.90
11188;DHT22;5650;52.700;7.306;2023-08-12T05:03:04;20.10;99.90
11188;DHT22;5650;52.700;7.306;2023-08-12T05:05:31;20.10;99.90
11188;DHT22;5650;52.700;7.306;2023-08-12T05:08:09;20.10;99.90
11188;DHT22;5650;52.700;7.306;2023-08-12T05:10:36;20.10;99.90
11188;DHT22;5650;52.700;7.306;2023-08-12T05:13:03;20.10;99.90
11188;DHT22;5650;52.700;7.306;2023-08-12T05:15:31;20.10;99.90
11188;DHT22;5650;52.700;7.306;2023-08-12T05:17:59;20.10;99.90
11188;DHT22;5650;52.700;7.306;2023-08-12T05:20:26;20.10;99.90
11188;DHT22;5650;52.700;7.306;2023-08-12T05:22:57;20.10;99.90
11188;DHT22;5650;52.700;7.306;2023-08-12T05:25:24;20.10;99.90
11188;DHT22;5650;52.700;7.306;2023-08-12T05:27:58;20.20;99.90
11188;DHT22;5650;52.700;7.306;2023-08-12T05:30:25;20.20;99.90
11188;DHT22;5650;52.700;7.306;2023-08-12T05:32:52;20.20;99.90
11188;DHT22;5650;52.700;7.306;2023-08-12T05:35:21;20.20;99.90
11188;DHT22;5650;52.700;7.306;2023-08-12T05:37:48;20.20;99.90
11188;DHT22;5650;52.700;7.306;2023-08-12T05:40:15;20.20;99.90
11188;DHT22;5650;52.700;7.306;2023-08-12T05:42:42;20.30;99.90
11188;DHT22;5650;52.700;7.306;2023-08-12T05:45:12;20.30;99.90
11188;DHT22;5650;52.700;7.306;2023-08-12T05:47:39;20.30;99.90
11188;DHT22;5650;52.700;7.306;2023-08-12T05:50:07;20.30;99.90
11188;DHT22;5650;52.700;7.306;2023-08-12T05:52:36;20.30;99.90
11188;DHT22;5650;52.700;7.306;2023-08-12T05:55:04;20.30;99.90
11188;DHT22;5650;52.700;7.306;2023-08-12T05:57:34;20.40;99.90
11188;DHT22;5650;52.700;7.306;2023-08-12T06:00:02;20.40;99.90
11188;DHT22;5650;52.700;7.306;2023-08-12T06:02:29;20.50;99.90
11188;DHT22;5650;52.700;7.306;2023-08-12T06:05:03;20.50;99.90
11188;DHT22;5650;52.700;7.306;2023-08-12T06:07:33;20.50;99.90
11188;DHT22;5650;52.700;7.306;2023-08-12T06:10:02;20.60;99.90
11188;DHT22;5650;52.700;7.306;2023-08-12T06:12:35;20.60;99.90
11188;DHT22;5650;52.700;7.306;2023-08-12T06:15:09;20.60;99.90
11188;DHT22;5650;52.700;7.306;2023-08-12T06:17:36;20.60;99.90
11188;DHT22;5650;52.700;7.306;2023-08-12T06:20:04;20.60;99.90
11188;DHT22;5650;52.700;7.306;2023-08-12T06:22:40;20.70;99.90
11188;DHT22;5650;52.700;7.306;2023-08-12T06:25:09;20.80;99.90
11188;DHT22;5650;52.700;7.306;2023-08-12T06:27:39;20.80;99.90
11188;DHT22;5650;52.700;7.306;2023-08-12T06:30:10;20.90;99.90
11188;DHT22;5650;52.700;7.306;2023-08-12T06:32:38;21.00;99.90
11188;DHT22;5650;52.700;7.306;2023-08-12T06:35:05;21.10;99.90
11188;DHT22;5650;52.700;7.306;2023-08-12T06:37:38;21.10;99.90
11188;DHT22;5650;52.700;7.306;2023-08-12T06:40:09;21.30;99.90
11188;DHT22;5650;52.700;7.306;2023-08-12T06:42:36;21.40;99.90
11188;DHT22;5650;52.700;7.306;2023-08-12T06:45:04;21.60;99.90
11188;DHT22;5650;52.700;7.306;2023-08-12T06:47:37;21.80;99.90
11188;DHT22;5650;52.700;7.306;2023-08-12T06:50:05;22.00;99.90
11188;DHT22;5650;52.700;7.306;2023-08-12T06:52:32;22.10;99.90
11188;DHT22;5650;52.700;7.306;2023-08-12T06:54:59;22.20;99.90
11188;DHT22;5650;52.700;7.306;2023-08-12T06:57:28;22.20;99.90
11188;DHT22;5650;52.700;7.306;2023-08-12T06:59:55;22.30;99.90
11188;DHT22;5650;52.700;7.306;2023-08-12T07:02:22;22.30;99.90
11188;DHT22;5650;52.700;7.306;2023-08-12T07:04:49;22.30;99.90
11188;DHT22;5650;52.700;7.306;2023-08-12T07:07:17;22.20;99.90
11188;DHT22;5650;52.700;7.306;2023-08-12T07:09:44;22.20;99.90
11188;DHT22;5650;52.700;7.306;2023-08-12T07:12:11;22.10;99.90
11188;DHT22;5650;52.700;7.306;2023-08-12T07:14:40;22.00;99.90
11188;DHT22;5650;52.700;7.306;2023-08-12T07:17:07;21.80;99.90
11188;DHT22;5650;52.700;7.306;2023-08-12T07:19:34;21.80;99.90
11188;DHT22;5650;52.700;7.306;2023-08-12T07:22:02;21.70;99.90
11188;DHT22;5650;52.700;7.306;2023-08-12T07:24:30;21.70;99.90
11188;DHT22;5650;52.700;7.306;2023-08-12T07:26:57;21.70;99.90
11188;DHT22;5650;52.700;7.306;2023-08-12T07:29:24;21.70;99.90
11188;DHT22;5650;52.700;7.306;2023-08-12T07:31:53;21.60;99.90
11188;DHT22;5650;52.700;7.306;2023-08-12T07:34:20;21.60;99.90
11188;DHT22;5650;52.700;7.306;2023-08-12T07:36:47;21.60;99.90
11188;DHT22;5650;52.700;7.306;2023-08-12T07:39:14;21.50;99.90
11188;DHT22;5650;52.700;7.306;2023-08-12T07:41:46;21.60;99.90
11188;DHT22;5650;52.700;7.306;2023-08-12T07:44:14;21.50;99.90
11188;DHT22;5650;52.700;7.306;2023-08-12T07:46:44;21.40;99.90
11188;DHT22;5650;52.700;7.306;2023-08-12T07:49:12;21.40;99.90
11188;DHT22;5650;52.700;7.306;2023-08-12T07:51:40;21.40;99.90
11188;DHT22;5650;52.700;7.306;2023-08-12T07:54:07;21.40;99.90
11188;DHT22;5650;52.700;7.306;2023-08-12T07:56:37;21.30;99.90
11188;DHT22;5650;52.700;7.306;2023-08-12T07:59:04;21.30;99.90
11188;DHT22;5650;52.700;7.306;2023-08-12T08:01:31;21.20;99.90
11188;DHT22;5650;52.700;7.306;2023-08-12T08:03:59;21.20;99.90
11188;DHT22;5650;52.700;7.306;2023-08-12T08:06:29;21.10;99.90
11188;DHT22;5650;52.700;7.306;2023-08-12T08:09:02;21.10;99.90
11188;DHT22;5650;52.700;7.306;2023-08-12T08:11:37;21.00;99.90
11188;DHT22;5650;52.700;7.306;2023-08-12T08:14:05;21.00;99.90
11188;DHT22;5650;52.700;7.306;2023-08-12T08:16:32;21.00;99.90
11188;DHT22;5650;52.700;7.306;2023-08-12T08:18:59;20.90;99.90
11188;DHT22;5650;52.700;7.306;2023-08-12T08:21:29;20.90;99.90
11188;DHT22;5650;52.700;7.306;2023-08-12T08:23:59;20.80;99.90
11188;DHT22;5650;52.700;7.306;2023-08-12T08:26:26;20.80;99.90
11188;DHT22;5650;52.700;7.306;2023-08-12T08:28:54;20.80;99.90
11188;DHT22;5650;52.700;7.306;2023-08-12T08:31:21;20.80;99.90
11188;DHT22;5650;52.700;7.306;2023-08-12T08:33:48;20.80;99.90
11188;DHT22;5650;52.700;7.306;2023-08-12T08:36:16;20.70;99.90
11188;DHT22;5650;52.700;7.306;2023-08-12T08:38:45;20.70;99.90
11188;DHT22;5650;52.700;7.306;2023-08-12T08:41:13;20.70;99.90
11188;DHT22;5650;52.700;7.306;2023-08-12T08:43:50;20.60;99.90
11188;DHT22;5650;52.700;7.306;2023-08-12T08:46:19;20.60;99.90
11188;DHT22;5650;52.700;7.306;2023-08-12T08:48:48;20.50;99.90
11188;DHT22;5650;52.700;7.306;2023-08-12T08:51:17;20.50;99.90
11188;DHT22;5650;52.700;7.306;2023-08-12T08:53:47;20.50;99.90
11188;DHT22;5650;52.700;7.306;2023-08-12T08:56:14;20.50;99.90
11188;DHT22;5650;52.700;7.306;2023-08-12T08:58:41;20.50;99.90
11188;DHT22;5650;52.700;7.306;2023-08-12T09:01:09;20.50;99.90
11188;DHT22;5650;52.700;7.306;2023-08-12T09:03:38;20.50;99.90
11188;DHT22;5650;52.700;7.306;2023-08-12T09:06:05;20.50;99.90
11188;DHT22;5650;52.700;7.306;2023-08-12T09:08:33;20.50;99.90
11188;DHT22;5650;52.700;7.306;2023-08-12T09:11:02;20.60;99.90
11188;DHT22;5650;52.700;7.306;2023-08-12T09:13:30;20.60;99.90
11188;DHT22;5650;52.700;7.306;2023-08-12T09:15:58;20.70;99.90
11188;DHT22;5650;52.700;7.306;2023-08-12T09:18:26;20.70;99.90
11188;DHT22;5650;52.700;7.306;2023-08-12T09:20:53;20.70;99.90
11188;DHT22;5650;52.700;7.306;2023-08-12T09:23:21;20.80;99.90
11188;DHT22;5650;52.700;7.306;2023-08-12T09:25:48;20.80;99.90
11188;DHT22;5650;52.700;7.306;2023-08-12T09:28:17;20.80;99.90
11188;DHT22;5650;52.700;7.306;2023-08-12T09:30:50;20.90;99.90
11188;DHT22;5650;52.700;7.306;2023-08-12T09:33:24;21.00;99.90
11188;DHT22;5650;52.700;7.306;2023-08-12T09:35:51;21.00;99.90
11188;DHT22;5650;52.700;7.306;2023-08-12T09:38:18;21.10;99.90
11188;DHT22;5650;52.700;7.306;2023-08-12T09:40:46;21.10;99.90
11188;DHT22;5650;52.700;7.306;2023-08-12T09:43:16;21.00;99.90
11188;DHT22;5650;52.700;7.306;2023-08-12T09:45:44;21.00;99.90
11188;DHT22;5650;52.700;7.306;2023-08-12T09:48:12;21.00;99.90
11188;DHT22;5650;52.700;7.306;2023-08-12T09:50:40;21.00;99.90
11188;DHT22;5650;52.700;7.306;2023-08-12T09:53:07;21.00;99.90
11188;DHT22;5650;52.700;7.306;2023-08-12T09:55:39;21.00;99.90
11188;DHT22;5650;52.700;7.306;2023-08-12T09:58:18;20.90;99.90
11188;DHT22;5650;52.700;7.306;2023-08-12T10:00:47;20.90;99.90
11188;DHT22;5650;52.700;7.306;2023-08-12T10:03:17;21.00;99.90
11188;DHT22;5650;52.700;7.306;2023-08-12T10:05:47;21.00;99.90
11188;DHT22;5650;52.700;7.306;2023-08-12T10:08:14;21.00;99.90
11188;DHT22;5650;52.700;7.306;2023-08-12T10:10:42;21.00;99.90
11188;DHT22;5650;52.700;7.306;2023-08-12T10:13:10;21.00;99.90
11188;DHT22;5650;52.700;7.306;2023-08-12T10:15:40;21.00;99.90
11188;DHT22;5650;52.700;7.306;2023-08-12T10:18:07;21.10;99.90
11188;DHT22;5650;52.700;7.306;2023-08-12T10:20:36;21.20;99.90
11188;DHT22;5650;52.700;7.306;2023-08-12T10:23:08;21.40;99.90
11188;DHT22;5650;52.700;7.306;2023-08-12T10:25:43;21.60;99.90
11188;DHT22;5650;52.700;7.306;2023-08-12T10:28:11;21.80;99.90
11188;DHT22;5650;52.700;7.306;2023-08-12T10:30:40;22.10;99.90
11188;DHT22;5650;52.700;7.306;2023-08-12T10:33:09;22.20;99.90
11188;DHT22;5650;52.700;7.306;2023-08-12T10:35:47;22.30;99.90
11188;DHT22;5650;52.700;7.306;2023-08-12T10:38:17;22.30;99.90
11188;DHT22;5650;52.700;7.306;2023-08-12T10:40:46;22.20;99.90
11188;DHT22;5650;52.700;7.306;2023-08-12T10:43:14;22.10;99.90
11188;DHT22;5650;52.700;7.306;2023-08-12T10:45:52;21.90;99.90
11188;DHT22;5650;52.700;7.306;2023-08-12T10:48:22;21.90;99.90
11188;DHT22;5650;52.700;7.306;2023-08-12T10:50:55;21.80;99.90
11188;DHT22;5650;52.700;7.306;2023-08-12T10:53:25;21.80;99.90
11188;DHT22;5650;52.700;7.306;2023-08-12T10:55:56;21.70;99.90
11188;DHT22;5650;52.700;7.306;2023-08-12T10:58:26;21.80;99.90
11188;DHT22;5650;52.700;7.306;2023-08-12T11:00:55;21.80;99.90
11188;DHT22;5650;52.700;7.306;2023-08-12T11:03:26;21.70;99.90
11188;DHT22;5650;52.700;7.306;2023-08-12T11:05:59;21.70;99.90
11188;DHT22;5650;52.700;7.306;2023-08-12T11:08:27;21.70;99.90
11188;DHT22;5650;52.700;7.306;2023-08-12T11:10:55;21.80;99.90
11188;DHT22;5650;52.700;7.306;2023-08-12T11:13:27;21.70;99.90
11188;DHT22;5650;52.700;7.306;2023-08-12T11:16:06;21.70;99.90
11188;DHT22;5650;52.700;7.306;2023-08-12T11:18:34;21.70;99.90
11188;DHT22;5650;52.700;7.306;2023-08-12T11:21:03;21.70;99.90
11188;DHT22;5650;52.700;7.306;2023-08-12T11:23:31;21.70;99.90
11188;DHT22;5650;52.700;7.306;2023-08-12T11:26:00;21.70;99.90
11188;DHT22;5650;52.700;7.306;2023-08-12T11:28:28;21.70;99.90
11188;DHT22;5650;52.700;7.306;2023-08-12T11:30:55;21.70;99.90
11188;DHT22;5650;52.700;7.306;2023-08-12T11:33:24;21.70;99.90
11188;DHT22;5650;52.700;7.306;2023-08-12T11:35:51;21.60;99.90
11188;DHT22;5650;52.700;7.306;2023-08-12T11:38:19;21.50;99.90
11188;DHT22;5650;52.700;7.306;2023-08-12T11:40:46;21.40;99.90
11188;DHT22;5650;52.700;7.306;2023-08-12T11:43:13;21.40;99.90
11188;DHT22;5650;52.700;7.306;2023-08-12T11:45:42;21.40;99.90
11188;DHT22;5650;52.700;7.306;2023-08-12T11:48:10;21.40;99.90
11188;DHT22;5650;52.700;7.306;2023-08-12T11:50:39;21.40;99.90
11188;DHT22;5650;52.700;7.306;2023-08-12T11:53:06;21.40;99.90
11188;DHT22;5650;52.700;7.306;2023-08-12T11:55:33;21.50;99.90
11188;DHT22;5650;52.700;7.306;2023-08-12T11:58:01;21.60;99.90
11188;DHT22;5650;52.700;7.306;2023-08-12T12:00:32;21.80;99.90
11188;DHT22;5650;52.700;7.306;2023-08-12T12:03:03;22.00;99.90
11188;DHT22;5650;52.700;7.306;2023-08-12T12:05:31;22.10;99.90
11188;DHT22;5650;52.700;7.306;2023-08-12T12:08:01;22.10;99.90
11188;DHT22;5650;52.700;7.306;2023-08-12T12:10:32;22.10;99.90
11188;DHT22;5650;52.700;7.306;2023-08-12T12:13:00;22.10;99.90
11188;DHT22;5650;52.700;7.306;2023-08-12T12:15:28;22.10;99.90
11188;DHT22;5650;52.700;7.306;2023-08-12T12:17:55;22.20;99.90
11188;DHT22;5650;52.700;7.306;2023-08-12T12:20:23;22.30;99.90
11188;DHT22;5650;52.700;7.306;2023-08-12T12:22:51;22.40;99.90
11188;DHT22;5650;52.700;7.306;2023-08-12T12:25:19;22.50;99.90
11188;DHT22;5650;52.700;7.306;2023-08-12T12:27:48;22.50;99.90
11188;DHT22;5650;52.700;7.306;2023-08-12T12:30:16;22.60;99.90
11188;DHT22;5650;52.700;7.306;2023-08-12T12:32:44;22.60;99.90
11188;DHT22;5650;52.700;7.306;2023-08-12T12:35:12;22.70;99.90
11188;DHT22;5650;52.700;7.306;2023-08-12T12:37:39;22.70;99.90
11188;DHT22;5650;52.700;7.306;2023-08-12T12:40:08;22.70;99.90
11188;DHT22;5650;52.700;7.306;2023-08-12T12:42:37;22.70;99.90
11188;DHT22;5650;52.700;7.306;2023-08-12T12:45:06;22.70;99.90
11188;DHT22;5650;52.700;7.306;2023-08-12T12:47:36;22.70;99.90
11188;DHT22;5650;52.700;7.306;2023-08-12T12:50:05;22.70;99.90
11188;DHT22;5650;52.700;7.306;2023-08-12T12:52:32;22.80;99.90
11188;DHT22;5650;52.700;7.306;2023-08-12T12:54:59;22.90;99.90
11188;DHT22;5650;52.700;7.306;2023-08-12T12:57:29;23.10;99.90
11188;DHT22;5650;52.700;7.306;2023-08-12T12:59:58;23.10;99.90
11188;DHT22;5650;52.700;7.306;2023-08-12T13:02:25;23.30;99.90
11188;DHT22;5650;52.700;7.306;2023-08-12T13:04:54;23.50;99.90
11188;DHT22;5650;52.700;7.306;2023-08-12T13:07:21;23.80;99.90
11188;DHT22;5650;52.700;7.306;2023-08-12T13:09:49;24.00;99.90
11188;DHT22;5650;52.700;7.306;2023-08-12T13:12:19;24.20;99.90
11188;DHT22;5650;52.700;7.306;2023-08-12T13:14:48;24.20;99.90
11188;DHT22;5650;52.700;7.306;2023-08-12T13:17:17;24.20;99.90
11188;DHT22;5650;52.700;7.306;2023-08-12T13:19:44;24.20;99.90
11188;DHT22;5650;52.700;7.306;2023-08-12T13:22:13;24.30;99.90
11188;DHT22;5650;52.700;7.306;2023-08-12T13:24:43;24.30;99.90
11188;DHT22;5650;52.700;7.306;2023-08-12T13:27:10;24.40;99.90
11188;DHT22;5650;52.700;7.306;2023-08-12T13:29:38;24.50;99.90
11188;DHT22;5650;52.700;7.306;2023-08-12T13:32:05;24.50;99.90
11188;DHT22;5650;52.700;7.306;2023-08-12T13:34:34;24.40;99.90
11188;DHT22;5650;52.700;7.306;2023-08-12T13:37:01;24.40;99.90
11188;DHT22;5650;52.700;7.306;2023-08-12T13:39:28;24.40;99.90
11188;DHT22;5650;52.700;7.306;2023-08-12T13:41:56;24.30;99.90
11188;DHT22;5650;52.700;7.306;2023-08-12T13:44:23;24.30;99.90
11188;DHT22;5650;52.700;7.306;2023-08-12T13:46:50;24.30;99.90
11188;DHT22;5650;52.700;7.306;2023-08-12T13:49:17;24.20;99.90
11188;DHT22;5650;52.700;7.306;2023-08-12T13:51:46;24.20;99.90
11188;DHT22;5650;52.700;7.306;2023-08-12T13:54:13;24.20;99.90
11188;DHT22;5650;52.700;7.306;2023-08-12T13:56:40;24.20;99.90
11188;DHT22;5650;52.700;7.306;2023-08-12T13:59:10;24.30;99.90
11188;DHT22;5650;52.700;7.306;2023-08-12T14:01:37;24.20;99.90
11188;DHT22;5650;52.700;7.306;2023-08-12T14:04:05;24.20;99.90
11188;DHT22;5650;52.700;7.306;2023-08-12T14:06:32;24.30;99.90
11188;DHT22;5650;52.700;7.306;2023-08-12T14:09:01;24.30;99.90
11188;DHT22;5650;52.700;7.306;2023-08-12T14:11:31;24.30;99.90
11188;DHT22;5650;52.700;7.306;2023-08-12T14:13:58;24.30;99.90
11188;DHT22;5650;52.700;7.306;2023-08-12T14:16:27;24.30;99.90
11188;DHT22;5650;52.700;7.306;2023-08-12T14:18:57;24.30;99.90
11188;DHT22;5650;52.700;7.306;2023-08-12T14:21:24;24.20;99.90
11188;DHT22;5650;52.700;7.306;2023-08-12T14:23:51;24.00;99.90
11188;DHT22;5650;52.700;7.306;2023-08-12T14:26:20;23.80;99.90
11188;DHT22;5650;52.700;7.306;2023-08-12T14:28:50;23.60;99.90
11188;DHT22;5650;52.700;7.306;2023-08-12T14:31:17;23.50;99.90
11188;DHT22;5650;52.700;7.306;2023-08-12T14:33:47;23.40;99.90
11188;DHT22;5650;52.700;7.306;2023-08-12T14:36:14;23.40;99.90
11188;DHT22;5650;52.700;7.306;2023-08-12T14:38:47;23.50;99.90
11188;DHT22;5650;52.700;7.306;2023-08-12T14:41:14;23.50;99.90
11188;DHT22;5650;52.700;7.306;2023-08-12T14:43:43;23.60;99.90
11188;DHT22;5650;52.700;7.306;2023-08-12T14:46:10;23.70;99.90
11188;DHT22;5650;52.700;7.306;2023-08-12T14:48:37;23.80;99.90
11188;DHT22;5650;52.700;7.306;2023-08-12T14:51:13;23.80;99.90
11188;DHT22;5650;52.700;7.306;2023-08-12T14:53:41;23.90;99.90
11188;DHT22;5650;52.700;7.306;2023-08-12T14:56:16;23.90;99.90
11188;DHT22;5650;52.700;7.306;2023-08-12T14:58:45;23.90;99.90
11188;DHT22;5650;52.700;7.306;2023-08-12T15:01:12;24.00;99.90
11188;DHT22;5650;52.700;7.306;2023-08-12T15:03:41;24.00;99.90
11188;DHT22;5650;52.700;7.306;2023-08-12T15:06:10;24.00;99.90
11188;DHT22;5650;52.700;7.306;2023-08-12T15:08:37;24.00;99.90
11188;DHT22;5650;52.700;7.306;2023-08-12T15:11:04;24.00;99.90
11188;DHT22;5650;52.700;7.306;2023-08-12T15:13:31;24.00;99.90
11188;DHT22;5650;52.700;7.306;2023-08-12T15:15:59;24.10;99.90
11188;DHT22;5650;52.700;7.306;2023-08-12T15:18:30;24.10;99.90
11188;DHT22;5650;52.700;7.306;2023-08-12T15:20:57;24.20;99.90
11188;DHT22;5650;52.700;7.306;2023-08-12T15:23:26;24.30;99.90
11188;DHT22;5650;52.700;7.306;2023-08-12T15:25:53;24.20;99.90
11188;DHT22;5650;52.700;7.306;2023-08-12T15:28:21;24.10;99.90
11188;DHT22;5650;52.700;7.306;2023-08-12T15:30:48;24.20;99.90
11188;DHT22;5650;52.700;7.306;2023-08-12T15:33:17;24.20;99.90
11188;DHT22;5650;52.700;7.306;2023-08-12T15:35:44;24.10;99.90
11188;DHT22;5650;52.700;7.306;2023-08-12T15:38:11;24.10;99.90
11188;DHT22;5650;52.700;7.306;2023-08-12T15:40:43;24.00;99.90
11188;DHT22;5650;52.700;7.306;2023-08-12T15:43:11;24.00;99.90
11188;DHT22;5650;52.700;7.306;2023-08-12T15:45:50;24.00;99.90
11188;DHT22;5650;52.700;7.306;2023-08-12T15:48:23;23.90;99.90
11188;DHT22;5650;52.700;7.306;2023-08-12T15:50:50;23.90;99.90
11188;DHT22;5650;52.700;7.306;2023-08-12T15:53:26;24.00;99.90